Time;durP1;ratioP1;P1;durP2;ratioP2;P2;SDS_P1;SDS_P2;PMS_P1;PMS_P2;Temp;Humidity;BMP_temperature;BMP_pressure;BME280_temperature;BME280_humidity;BME280_pressure;Samples;Min_cycle;Max_cycle;Signal;HPM_P1;HPM_P2
2024/01/08 00:01:34;;;;;;;5.95;4.30;;;;;;;;;;4829613;29;20085;-91
2024/01/08 00:04:00;;;;;;;12.27;4.80;;;;;;;;;;4827182;29;20041;-90
2024/01/08 00:06:26;;;;;;;8.35;4.75;;;;;;;;;;4842218;29;20445;-90
2024/01/08 00:08:52;;;;;;;7.55;4.07;;;;;;;;;;4826861;29;20131;-91
2024/01/08 00:11:18;;;;;;;5.32;4.07;;;;;;;;;;4826537;29;20084;-90
2024/01/08 00:13:44;;;;;;;6.53;4.13;;;;;;;;;;4827047;29;20484;-91
2024/01/08 00:16:11;;;;;;;6.53;3.83;;;;;;;;;;4826465;29;20049;-91
2024/01/08 00:18:37;;;;;;;6.63;4.10;;;;;;;;;;4826745;29;20094;-90
2024/01/08 00:21:03;;;;;;;6.00;4.43;;;;;;;;;;4827221;29;20050;-91
2024/01/08 00:23:34;;;;;;;8.63;4.25;;;;;;;;;;4826659;29;20045;-90
2024/01/08 00:26:00;;;;;;;8.25;4.22;;;;;;;;;;4829324;29;20052;-90
2024/01/08 00:28:26;;;;;;;7.32;3.72;;;;;;;;;;4830149;29;20136;-91
2024/01/08 00:30:53;;;;;;;10.02;4.47;;;;;;;;;;4830281;29;20089;-91
2024/01/08 00:33:19;;;;;;;8.25;3.75;;;;;;;;;;4830242;29;20068;-91
2024/01/08 00:35:45;;;;;;;7.55;4.97;;;;;;;;;;4830174;29;20411;-91
2024/01/08 00:38:11;;;;;;;7.35;3.95;;;;;;;;;;4829853;29;20538;-90
2024/01/08 00:40:37;;;;;;;6.40;4.45;;;;;;;;;;4829949;29;20053;-91
2024/01/08 00:43:03;;;;;;;5.97;4.07;;;;;;;;;;4829958;29;20038;-91
2024/01/08 00:45:30;;;;;;;6.07;4.68;;;;;;;;;;4829775;29;20053;-91
2024/01/08 00:47:56;;;;;;;6.72;3.92;;;;;;;;;;4830418;29;20503;-91
2024/01/08 00:50:23;;;;;;;7.38;4.55;;;;;;;;;;4829995;29;20062;-91
2024/01/08 00:52:49;;;;;;;8.25;4.78;;;;;;;;;;4829727;29;20492;-91
2024/01/08 00:55:15;;;;;;;8.13;4.65;;;;;;;;;;4829764;29;20118;-92
2024/01/08 00:57:41;;;;;;;8.07;4.30;;;;;;;;;;4830017;29;20514;-91
2024/01/08 01:00:08;;;;;;;6.43;3.83;;;;;;;;;;4829846;29;20085;-91
2024/01/08 01:02:35;;;;;;;7.53;4.60;;;;;;;;;;4829984;29;20057;-91
2024/01/08 01:05:02;;;;;;;7.38;4.38;;;;;;;;;;4829499;29;20088;-91
2024/01/08 01:07:29;;;;;;;9.02;4.95;;;;;;;;;;4829578;29;20057;-91
2024/01/08 01:09:55;;;;;;;8.30;4.13;;;;;;;;;;4830394;29;20042;-91
2024/01/08 01:12:22;;;;;;;4.13;3.58;;;;;;;;;;4829332;29;20057;-91
2024/01/08 01:14:48;;;;;;;5.65;3.75;;;;;;;;;;4829590;29;20042;-91
2024/01/08 01:17:14;;;;;;;22.08;4.82;;;;;;;;;;4829313;29;20053;-91
2024/01/08 01:19:46;;;;;;;6.63;3.53;;;;;;;;;;4829637;29;20046;-91
2024/01/08 01:22:12;;;;;;;10.98;4.53;;;;;;;;;;4814220;29;20057;-90
2024/01/08 01:24:38;;;;;;;5.55;3.88;;;;;;;;;;4844420;29;20511;-91
2024/01/08 01:27:04;;;;;;;6.35;4.13;;;;;;;;;;4844925;29;20093;-91
2024/01/08 01:29:30;;;;;;;6.55;4.40;;;;;;;;;;4813979;29;20100;-91
2024/01/08 01:31:56;;;;;;;6.30;3.63;;;;;;;;;;4829436;29;20050;-91
2024/01/08 01:34:23;;;;;;;5.38;3.88;;;;;;;;;;4828952;29;20453;-90
2024/01/08 01:36:56;;;;;;;5.70;3.80;;;;;;;;;;4844052;29;20065;-90
2024/01/08 01:39:23;;;;;;;6.03;4.47;;;;;;;;;;4828884;29;20054;-89
2024/01/08 01:45:30;;;;;;;5.13;4.05;;;;;;;;;;4845468;29;20102;-92
2024/01/08 01:47:57;;;;;;;6.78;4.00;;;;;;;;;;4844199;29;20140;-92
2024/01/08 01:50:23;;;;;;;6.50;4.03;;;;;;;;;;4844180;29;20072;-90
2024/01/08 01:52:50;;;;;;;6.47;4.45;;;;;;;;;;4828727;29;20136;-91
2024/01/08 01:55:16;;;;;;;9.80;5.28;;;;;;;;;;4829306;29;20087;-91
2024/01/08 01:57:43;;;;;;;6.43;4.28;;;;;;;;;;4829325;29;20048;-90
2024/01/08 02:00:10;;;;;;;4.45;3.95;;;;;;;;;;4828806;29;20495;-91
2024/01/08 02:02:36;;;;;;;6.05;4.53;;;;;;;;;;4828577;29;20042;-91
2024/01/08 02:05:03;;;;;;;9.20;4.47;;;;;;;;;;4828253;29;20079;-91
2024/01/08 02:07:30;;;;;;;6.40;5.05;;;;;;;;;;4828650;29;20042;-90
2024/01/08 02:09:56;;;;;;;5.90;3.95;;;;;;;;;;4828720;29;20052;-90
2024/01/08 02:12:23;;;;;;;8.02;4.82;;;;;;;;;;4828590;29;20046;-90
2024/01/08 02:14:49;;;;;;;8.18;5.28;;;;;;;;;;4828287;29;20045;-91
2024/01/08 02:17:15;;;;;;;6.40;4.28;;;;;;;;;;4828819;29;20053;-91
2024/01/08 02:19:41;;;;;;;11.23;4.82;;;;;;;;;;4828415;29;20106;-91
2024/01/08 02:22:07;;;;;;;7.05;4.68;;;;;;;;;;4828350;29;20129;-91
2024/01/08 02:24:33;;;;;;;7.03;4.10;;;;;;;;;;4828297;29;20045;-91
2024/01/08 02:27:01;;;;;;;7.03;4.65;;;;;;;;;;4828708;29;20058;-91
2024/01/08 02:29:28;;;;;;;9.63;5.40;;;;;;;;;;4829394;29;20392;-91
2024/01/08 02:31:54;;;;;;;6.80;4.50;;;;;;;;;;4830473;29;20053;-91
2024/01/08 02:34:20;;;;;;;9.20;4.90;;;;;;;;;;4831451;29;20122;-92
2024/01/08 02:37:07;;;;;;;7.80;4.90;;;;;;;;;;4849901;29;20522;-91
2024/01/08 02:39:35;;;;;;;7.13;4.85;;;;;;;;;;4818461;29;20202;-90
2024/01/08 02:42:01;;;;;;;7.30;5.30;;;;;;;;;;4832988;29;20053;-91
2024/01/08 02:44:28;;;;;;;9.13;4.97;;;;;;;;;;4828691;29;20087;-91
2024/01/08 02:46:54;;;;;;;6.32;4.70;;;;;;;;;;4827604;29;20093;-91
2024/01/08 02:49:20;;;;;;;7.85;4.97;;;;;;;;;;4827753;29;20125;-90
2024/01/08 02:51:52;;;;;;;8.95;4.72;;;;;;;;;;4828025;29;20053;-91
2024/01/08 02:54:18;;;;;;;7.07;4.60;;;;;;;;;;4827697;29;20102;-91
2024/01/08 02:56:45;;;;;;;11.40;5.35;;;;;;;;;;4843025;29;20136;-91
2024/01/08 02:59:11;;;;;;;8.88;5.43;;;;;;;;;;4842556;29;20114;-91
2024/01/08 03:01:38;;;;;;;8.68;5.30;;;;;;;;;;4827698;29;20088;-90
2024/01/08 03:04:05;;;;;;;9.15;5.32;;;;;;;;;;4828126;29;20101;-90
2024/01/08 03:06:31;;;;;;;7.85;5.15;;;;;;;;;;4827383;29;20034;-91
2024/01/08 03:08:57;;;;;;;9.63;5.80;;;;;;;;;;4827721;29;20593;-91
2024/01/08 03:11:23;;;;;;;7.78;5.47;;;;;;;;;;4812442;29;20058;-90
2024/01/08 03:13:49;;;;;;;7.90;5.25;;;;;;;;;;4827184;29;20053;-91
2024/01/08 03:16:18;;;;;;;7.13;4.32;;;;;;;;;;4827604;29;20057;-91
2024/01/08 03:18:46;;;;;;;8.32;4.72;;;;;;;;;;4827071;29;20477;-90
2024/01/08 03:21:12;;;;;;;6.90;4.97;;;;;;;;;;4827521;29;20053;-91
2024/01/08 03:23:38;;;;;;;9.48;6.18;;;;;;;;;;4827426;29;20046;-90
2024/01/08 03:26:05;;;;;;;9.68;6.40;;;;;;;;;;4827153;29;20054;-91
2024/01/08 03:28:31;;;;;;;7.93;4.85;;;;;;;;;;4827169;29;20050;-91
2024/01/08 03:30:57;;;;;;;8.05;4.97;;;;;;;;;;4827436;29;20477;-90
2024/01/08 03:33:23;;;;;;;7.20;4.93;;;;;;;;;;4827281;29;20461;-90
2024/01/08 03:35:49;;;;;;;9.57;6.35;;;;;;;;;;4827407;29;20054;-91
2024/01/08 03:38:15;;;;;;;11.35;5.72;;;;;;;;;;4842217;29;20054;-91
2024/01/08 03:40:42;;;;;;;10.10;6.38;;;;;;;;;;4827044;29;20393;-91
2024/01/08 03:43:08;;;;;;;9.98;5.30;;;;;;;;;;4826882;29;20130;-91
2024/01/08 03:45:34;;;;;;;8.52;5.28;;;;;;;;;;4826815;29;20621;-90
2024/01/08 03:48:00;;;;;;;7.60;4.05;;;;;;;;;;4826862;29;20093;-91
2024/01/08 03:50:26;;;;;;;6.35;4.90;;;;;;;;;;4826839;29;20054;-91
2024/01/08 03:52:52;;;;;;;6.80;5.10;;;;;;;;;;4826908;29;20092;-91
2024/01/08 03:55:18;;;;;;;8.48;5.20;;;;;;;;;;4826686;29;20082;-91
2024/01/08 03:57:44;;;;;;;6.95;4.82;;;;;;;;;;4826618;29;20072;-91
2024/01/08 04:00:11;;;;;;;7.55;4.57;;;;;;;;;;4825807;29;20072;-90
2024/01/08 04:02:40;;;;;;;8.15;5.05;;;;;;;;;;4826563;29;20050;-91
2024/01/08 04:05:08;;;;;;;10.10;4.72;;;;;;;;;;4826340;29;20149;-91
2024/01/08 04:07:34;;;;;;;10.80;4.63;;;;;;;;;;4827246;29;20057;-91
2024/01/08 04:10:04;;;;;;;7.75;4.80;;;;;;;;;;4826622;29;20066;-91
2024/01/08 04:12:31;;;;;;;7.43;4.50;;;;;;;;;;4826670;29;20049;-91
2024/01/08 04:15:05;;;;;;;8.52;3.75;;;;;;;;;;4843009;29;20114;-91
2024/01/08 04:17:31;;;;;;;9.13;4.85;;;;;;;;;;4826524;29;20050;-91
2024/01/08 04:19:57;;;;;;;7.28;5.00;;;;;;;;;;4841643;29;20081;-91
2024/01/08 04:22:24;;;;;;;9.38;4.20;;;;;;;;;;4826510;29;20045;-91
2024/01/08 04:24:50;;;;;;;6.00;4.18;;;;;;;;;;4826426;29;20132;-91
2024/01/08 04:27:18;;;;;;;5.82;3.83;;;;;;;;;;4826508;29;20053;-90
2024/01/08 04:29:44;;;;;;;6.47;4.43;;;;;;;;;;4826699;29;20052;-91
2024/01/08 04:32:22;;;;;;;6.88;4.53;;;;;;;;;;4826570;29;20086;-91
2024/01/08 04:34:48;;;;;;;10.23;4.35;;;;;;;;;;4826439;29;20050;-91
2024/01/08 04:37:14;;;;;;;12.77;5.47;;;;;;;;;;4826358;29;20062;-90
2024/01/08 04:39:41;;;;;;;11.88;4.22;;;;;;;;;;4841587;29;20061;-91
2024/01/08 04:42:08;;;;;;;7.18;3.97;;;;;;;;;;4826472;29;20052;-90
2024/01/08 04:44:34;;;;;;;7.82;4.10;;;;;;;;;;4841239;29;20056;-91
2024/01/08 04:47:00;;;;;;;8.65;4.20;;;;;;;;;;4827333;29;20053;-89
2024/01/08 04:49:26;;;;;;;6.07;4.20;;;;;;;;;;4828474;29;20076;-89
2024/01/08 04:51:52;;;;;;;6.18;3.60;;;;;;;;;;4828051;29;20054;-90
2024/01/08 04:54:18;;;;;;;7.20;4.00;;;;;;;;;;4827664;29;20053;-89
2024/01/08 04:56:45;;;;;;;4.60;3.90;;;;;;;;;;4828056;29;20052;-90
2024/01/08 04:59:11;;;;;;;14.02;4.95;;;;;;;;;;4826928;29;20583;-90
2024/01/08 05:01:38;;;;;;;5.10;4.07;;;;;;;;;;4826469;29;20054;-89
2024/01/08 05:04:04;;;;;;;6.65;3.58;;;;;;;;;;4842347;29;20518;-89
2024/01/08 05:06:31;;;;;;;4.38;2.70;;;;;;;;;;4825940;29;20518;-91
2024/01/08 05:08:57;;;;;;;5.35;3.70;;;;;;;;;;4841769;29;20053;-90
2024/01/08 05:11:23;;;;;;;4.60;3.58;;;;;;;;;;4827900;29;20058;-91
2024/01/08 05:13:49;;;;;;;10.30;4.05;;;;;;;;;;4838636;29;20466;-92
2024/01/08 05:16:15;;;;;;;6.05;3.75;;;;;;;;;;4839478;29;20049;-91
2024/01/08 05:18:41;;;;;;;6.28;3.78;;;;;;;;;;4829274;29;20053;-91
2024/01/08 05:21:07;;;;;;;6.43;3.97;;;;;;;;;;4835387;29;20073;-92
2024/01/08 05:23:33;;;;;;;6.13;3.72;;;;;;;;;;4837474;29;20092;-94
2024/01/08 05:26:01;;;;;;;8.00;3.90;;;;;;;;;;4837531;29;20068;-94
2024/01/08 05:28:28;;;;;;;4.22;3.72;;;;;;;;;;4838609;29;20042;-94
2024/01/08 05:30:54;;;;;;;6.00;3.75;;;;;;;;;;4838786;29;20085;-96
2024/01/08 05:33:20;;;;;;;6.25;3.17;;;;;;;;;;4839724;29;20193;-95
2024/01/08 05:35:46;;;;;;;4.28;3.10;;;;;;;;;;4855368;29;20087;-93
2024/01/08 05:38:13;;;;;;;6.25;4.22;;;;;;;;;;4840251;29;20058;-93
2024/01/08 05:40:39;;;;;;;3.95;3.13;;;;;;;;;;4855905;29;20075;-94
2024/01/08 05:43:06;;;;;;;4.30;3.30;;;;;;;;;;4839508;29;20081;-95
2024/01/08 05:45:32;;;;;;;4.97;3.45;;;;;;;;;;4840749;29;20076;-93
2024/01/08 05:47:58;;;;;;;5.20;3.17;;;;;;;;;;4840398;29;20050;-93
2024/01/08 05:50:27;;;;;;;5.50;3.67;;;;;;;;;;4837998;29;20050;-93
2024/01/08 05:52:57;;;;;;;6.93;4.03;;;;;;;;;;4854166;29;20089;-95
2024/01/08 05:55:23;;;;;;;5.78;3.92;;;;;;;;;;4836147;29;20056;-94
2024/01/08 05:57:50;;;;;;;5.10;3.55;;;;;;;;;;4837250;29;20050;-94
2024/01/08 06:00:16;;;;;;;5.38;3.63;;;;;;;;;;4837035;29;20056;-95
2024/01/08 06:02:42;;;;;;;4.90;3.67;;;;;;;;;;4836790;29;20070;-93
2024/01/08 06:05:09;;;;;;;6.03;5.30;;;;;;;;;;4837893;29;20054;-90
2024/01/08 06:07:36;;;;;;;5.93;3.35;;;;;;;;;;4831511;29;20037;-90
2024/01/08 06:10:02;;;;;;;3.53;2.90;;;;;;;;;;4831431;29;20146;-90
2024/01/08 06:12:29;;;;;;;5.63;4.20;;;;;;;;;;4831359;29;20050;-92
2024/01/08 06:14:55;;;;;;;6.93;3.70;;;;;;;;;;4828550;29;20122;-90
2024/01/08 06:17:22;;;;;;;5.20;3.47;;;;;;;;;;4828469;29;20046;-91
2024/01/08 06:19:51;;;;;;;10.85;4.40;;;;;;;;;;4829116;29;20060;-91
2024/01/08 06:22:17;;;;;;;9.88;4.22;;;;;;;;;;4827734;29;20049;-91
2024/01/08 06:24:43;;;;;;;4.75;3.53;;;;;;;;;;4828005;29;20129;-91
2024/01/08 06:27:10;;;;;;;9.38;4.22;;;;;;;;;;4828344;29;20448;-91
2024/01/08 06:29:36;;;;;;;4.63;3.33;;;;;;;;;;4828395;29;20045;-91
2024/01/08 06:32:03;;;;;;;5.57;3.45;;;;;;;;;;4828364;29;20050;-91
2024/01/08 06:34:29;;;;;;;5.60;3.65;;;;;;;;;;4828492;29;20050;-91
2024/01/08 06:36:55;;;;;;;6.38;3.95;;;;;;;;;;4827867;29;20061;-91
2024/01/08 06:39:21;;;;;;;6.80;4.43;;;;;;;;;;4828460;29;20412;-91
2024/01/08 06:41:47;;;;;;;6.57;3.83;;;;;;;;;;4827983;29;20053;-91
2024/01/08 06:44:13;;;;;;;16.58;4.68;;;;;;;;;;4827877;29;20521;-91
2024/01/08 06:46:39;;;;;;;6.10;3.33;;;;;;;;;;4827683;29;20049;-92
2024/01/08 06:49:08;;;;;;;8.23;4.03;;;;;;;;;;4827733;29;20053;-91
2024/01/08 06:51:41;;;;;;;4.32;3.85;;;;;;;;;;4844160;29;20061;-91
2024/01/08 06:54:07;;;;;;;7.57;3.53;;;;;;;;;;4827788;29;20042;-91
2024/01/08 06:56:34;;;;;;;6.38;3.60;;;;;;;;;;4827897;29;20057;-91
2024/01/08 06:59:01;;;;;;;9.75;4.13;;;;;;;;;;4827750;29;20050;-91
2024/01/08 07:01:29;;;;;;;7.32;4.53;;;;;;;;;;4827985;29;20133;-91
2024/01/08 07:03:55;;;;;;;5.47;4.10;;;;;;;;;;4827651;29;20053;-91
2024/01/08 07:06:21;;;;;;;4.65;3.88;;;;;;;;;;4827582;29;20153;-91
2024/01/08 07:08:47;;;;;;;5.85;3.58;;;;;;;;;;4827488;29;20105;-92
2024/01/08 07:11:21;;;;;;;3.70;3.25;;;;;;;;;;4827555;29;20046;-90
2024/01/08 07:13:47;;;;;;;9.70;4.75;;;;;;;;;;4827294;29;20050;-92
2024/01/08 07:16:13;;;;;;;8.15;3.90;;;;;;;;;;4827650;29;20083;-91
2024/01/08 07:18:39;;;;;;;4.90;3.38;;;;;;;;;;4827589;29;20073;-90
2024/01/08 07:21:05;;;;;;;8.90;4.00;;;;;;;;;;4827935;29;20050;-90
2024/01/08 07:23:32;;;;;;;4.97;3.33;;;;;;;;;;4827617;29;20052;-92
2024/01/08 07:25:58;;;;;;;8.25;4.30;;;;;;;;;;4842702;29;20519;-91
2024/01/08 07:28:24;;;;;;;8.13;3.65;;;;;;;;;;4827528;29;20081;-91
2024/01/08 07:30:50;;;;;;;6.00;3.92;;;;;;;;;;4841553;29;20054;-91
2024/01/08 07:36:57;;;;;;;12.70;3.40;;;;;;;;;;4842477;29;20058;-91
2024/01/08 07:39:35;;;;;;;6.45;3.50;;;;;;;;;;4807056;29;20058;-91
2024/01/08 07:42:01;;;;;;;11.90;4.00;;;;;;;;;;4805907;29;20104;-91
2024/01/08 07:44:27;;;;;;;9.88;2.65;;;;;;;;;;4776729;29;20137;-91
2024/01/08 07:50:22;;;;;;;6.45;3.38;;;;;;;;;;4806998;29;20146;-91
2024/01/08 07:52:54;;;;;;;10.43;3.50;;;;;;;;;;4805816;29;20058;-92
2024/01/08 07:59:02;;;;;;;6.43;3.05;;;;;;;;;;4806542;29;20049;-91
2024/01/08 08:01:35;;;;;;;3.72;2.90;;;;;;;;;;4805744;29;20074;-91
2024/01/08 08:04:05;;;;;;;9.45;3.90;;;;;;;;;;4825476;29;20079;-94
2024/01/08 08:10:02;;;;;;;13.07;3.30;;;;;;;;;;4821629;29;20045;-93
2024/01/08 08:12:29;;;;;;;5.18;3.08;;;;;;;;;;4808342;29;20050;-90
2024/01/08 08:15:04;;;;;;;3.47;2.58;;;;;;;;;;4806524;29;20050;-90
2024/01/08 08:17:30;;;;;;;6.50;3.20;;;;;;;;;;4790322;29;20516;-90
2024/01/08 08:20:05;;;;;;;6.78;3.33;;;;;;;;;;4806006;29;20053;-90
2024/01/08 08:22:31;;;;;;;6.18;3.30;;;;;;;;;;4776621;29;20050;-90
2024/01/08 08:24:57;;;;;;;4.55;3.25;;;;;;;;;;4806225;29;20097;-90
2024/01/08 08:27:23;;;;;;;3.63;2.80;;;;;;;;;;4775955;29;20080;-90
2024/01/08 08:29:50;;;;;;;3.63;2.80;;;;;;;;;;4806408;29;20110;-90
2024/01/08 08:32:16;;;;;;;5.38;2.67;;;;;;;;;;4823208;29;20408;-90
2024/01/08 08:34:42;;;;;;;6.97;3.03;;;;;;;;;;4778954;29;20445;-89
2024/01/08 08:37:11;;;;;;;8.13;3.80;;;;;;;;;;4782691;29;20054;-91
2024/01/08 08:39:37;;;;;;;9.18;4.07;;;;;;;;;;4826238;29;20054;-91
2024/01/08 08:42:07;;;;;;;8.85;4.00;;;;;;;;;;4826646;29;20099;-90
2024/01/08 08:44:33;;;;;;;6.20;2.67;;;;;;;;;;4826571;29;20050;-90
2024/01/08 08:47:00;;;;;;;5.45;3.35;;;;;;;;;;4829205;29;20042;-91
2024/01/08 08:49:26;;;;;;;5.07;2.20;;;;;;;;;;4830213;29;20441;-90
2024/01/08 08:51:52;;;;;;;5.68;2.50;;;;;;;;;;4829755;29;20074;-91
2024/01/08 08:54:18;;;;;;;6.35;3.25;;;;;;;;;;4830101;29;20062;-91
2024/01/08 08:56:44;;;;;;;4.13;2.53;;;;;;;;;;4829788;29;20057;-90
2024/01/08 08:59:10;;;;;;;3.15;2.30;;;;;;;;;;4829247;29;20518;-90
2024/01/08 09:01:37;;;;;;;8.00;3.15;;;;;;;;;;4829567;29;20050;-90
2024/01/08 09:04:03;;;;;;;5.15;4.07;;;;;;;;;;4829332;29;20495;-89
2024/01/08 09:06:33;;;;;;;3.10;2.22;;;;;;;;;;4829505;29;20050;-89
2024/01/08 09:08:59;;;;;;;3.58;2.80;;;;;;;;;;4830156;29;20045;-90
2024/01/08 09:11:27;;;;;;;7.70;3.20;;;;;;;;;;4832666;29;20057;-91
2024/01/08 09:13:53;;;;;;;7.55;3.17;;;;;;;;;;4832251;29;20399;-92
2024/01/08 09:16:20;;;;;;;11.18;2.97;;;;;;;;;;4832022;29;20132;-89
2024/01/08 09:18:46;;;;;;;7.90;2.88;;;;;;;;;;4829060;29;20046;-89
2024/01/08 09:21:13;;;;;;;6.30;2.72;;;;;;;;;;4829139;29;20662;-89
2024/01/08 09:23:43;;;;;;;14.70;3.00;;;;;;;;;;4844649;29;20046;-89
2024/01/08 09:26:09;;;;;;;4.75;2.67;;;;;;;;;;4829104;29;20125;-90
2024/01/08 09:28:35;;;;;;;6.90;2.55;;;;;;;;;;4829222;29;20090;-90
2024/01/08 09:31:02;;;;;;;8.50;2.55;;;;;;;;;;4844407;29;20050;-90
2024/01/08 09:33:28;;;;;;;5.40;2.92;;;;;;;;;;4844407;29;20050;-90
2024/01/08 09:35:55;;;;;;;4.35;2.90;;;;;;;;;;4828718;29;20056;-91
2024/01/08 09:38:21;;;;;;;3.47;2.17;;;;;;;;;;4828979;29;20426;-90
2024/01/08 09:40:47;;;;;;;4.45;2.55;;;;;;;;;;4828592;29;20053;-90
2024/01/08 09:43:15;;;;;;;4.57;2.47;;;;;;;;;;4828454;29;20145;-91
2024/01/08 09:46:04;;;;;;;5.10;2.33;;;;;;;;;;4843653;29;20136;-90
2024/01/08 09:48:31;;;;;;;5.20;2.25;;;;;;;;;;4828566;29;20568;-89
2024/01/08 09:51:01;;;;;;;9.60;2.88;;;;;;;;;;4828917;29;20407;-90
2024/01/08 09:53:28;;;;;;;3.38;2.83;;;;;;;;;;4828813;29;20054;-90
2024/01/08 09:55:54;;;;;;;4.78;2.30;;;;;;;;;;4828214;29;20499;-90
2024/01/08 09:58:20;;;;;;;5.40;2.75;;;;;;;;;;4842346;29;20125;-91
2024/01/08 10:00:46;;;;;;;4.40;2.95;;;;;;;;;;4828320;29;20179;-90
2024/01/08 10:03:13;;;;;;;2.80;2.47;;;;;;;;;;4828252;29;20050;-90
2024/01/08 10:05:39;;;;;;;3.20;2.45;;;;;;;;;;4828635;29;20091;-90
2024/01/08 10:08:06;;;;;;;3.40;2.25;;;;;;;;;;4828792;29;20391;-90
2024/01/08 10:10:32;;;;;;;4.63;2.50;;;;;;;;;;4828409;29;20243;-91
2024/01/08 10:12:59;;;;;;;3.35;2.30;;;;;;;;;;4828757;29;20382;-90
2024/01/08 10:15:25;;;;;;;5.80;3.38;;;;;;;;;;4843285;29;20082;-90
2024/01/08 10:17:51;;;;;;;5.82;2.85;;;;;;;;;;4828295;29;20520;-90
2024/01/08 10:20:18;;;;;;;5.90;3.03;;;;;;;;;;4828822;29;20137;-90
2024/01/08 10:22:47;;;;;;;7.70;2.80;;;;;;;;;;4843563;29;20057;-90
2024/01/08 10:25:23;;;;;;;4.97;2.50;;;;;;;;;;4827757;29;20056;-90
2024/01/08 10:27:49;;;;;;;6.25;2.35;;;;;;;;;;4827903;29;20506;-90
2024/01/08 10:30:15;;;;;;;5.50;2.72;;;;;;;;;;4843476;29;20507;-90
2024/01/08 10:32:42;;;;;;;3.03;2.60;;;;;;;;;;4827909;29;20050;-90
2024/01/08 10:35:09;;;;;;;6.18;3.25;;;;;;;;;;4827815;29;20084;-90
2024/01/08 10:37:36;;;;;;;4.95;2.90;;;;;;;;;;4824687;29;20081;-90
2024/01/08 10:40:04;;;;;;;5.05;3.25;;;;;;;;;;4824777;29;20445;-90
2024/01/08 10:42:33;;;;;;;4.25;2.85;;;;;;;;;;4824853;29;20511;-90
2024/01/08 10:44:59;;;;;;;9.50;2.70;;;;;;;;;;4824598;29;20110;-90
2024/01/08 10:47:29;;;;;;;3.50;2.72;;;;;;;;;;4824904;29;20049;-90
2024/01/08 10:49:56;;;;;;;4.10;2.38;;;;;;;;;;4824322;29;20054;-91
2024/01/08 10:52:26;;;;;;;5.00;2.72;;;;;;;;;;4824694;29;20046;-90
2024/01/08 10:54:59;;;;;;;3.85;2.35;;;;;;;;;;4824316;29;20086;-90
2024/01/08 10:57:31;;;;;;;2.70;2.50;;;;;;;;;;4824771;29;20050;-91
2024/01/08 10:59:57;;;;;;;9.02;2.60;;;;;;;;;;4824668;29;20059;-91
2024/01/08 11:02:25;;;;;;;3.17;2.53;;;;;;;;;;4825216;29;20049;-91
2024/01/08 11:04:59;;;;;;;3.35;2.50;;;;;;;;;;4824596;29;20054;-91
2024/01/08 11:07:25;;;;;;;3.28;2.10;;;;;;;;;;4824776;29;20050;-91
2024/01/08 11:10:03;;;;;;;4.95;2.38;;;;;;;;;;4824281;29;20386;-90
2024/01/08 11:12:29;;;;;;;3.03;2.58;;;;;;;;;;4824560;29;20520;-91
2024/01/08 11:15:01;;;;;;;5.68;2.22;;;;;;;;;;4824195;29;20050;-91
2024/01/08 11:17:28;;;;;;;7.93;2.80;;;;;;;;;;4825281;29;20397;-91
2024/01/08 11:19:55;;;;;;;5.07;3.50;;;;;;;;;;4824602;29;20050;-91
2024/01/08 11:22:21;;;;;;;3.88;2.88;;;;;;;;;;4825043;29;20450;-90
2024/01/08 11:59:37;;;;;;;5.43;3.17;;;;;;;;;;5089272;27;1365646;-93
2024/01/08 12:02:27;;;;;;;4.05;3.17;;;;;;;;;;5093116;28;20108;-93
2024/01/08 12:04:57;;;;;;;4.47;3.25;;;;;;;;;;5075824;28;20040;-94
2024/01/08 12:07:24;;;;;;;4.25;2.80;;;;;;;;;;5093386;28;20040;-94
2024/01/08 12:09:50;;;;;;;6.50;2.97;;;;;;;;;;5076367;28;20051;-94
2024/01/08 12:12:17;;;;;;;3.85;2.60;;;;;;;;;;5076166;28;20127;-94
2024/01/08 12:14:43;;;;;;;3.92;2.83;;;;;;;;;;5076194;28;20089;-95
2024/01/08 12:17:12;;;;;;;4.70;3.00;;;;;;;;;;5076476;28;20079;-95
2024/01/08 12:19:44;;;;;;;4.55;3.10;;;;;;;;;;5076205;28;20483;-95
2024/01/08 12:22:14;;;;;;;3.13;2.80;;;;;;;;;;5076544;28;20040;-95
2024/01/08 12:24:41;;;;;;;2.58;2.30;;;;;;;;;;5076993;28;20056;-96
2024/01/08 12:27:08;;;;;;;4.80;3.22;;;;;;;;;;5108044;27;20138;-95
2024/01/08 12:29:38;;;;;;;6.68;3.20;;;;;;;;;;5098439;28;20103;-96
2024/01/08 12:32:16;;;;;;;6.60;2.80;;;;;;;;;;5104122;28;20043;-95
2024/01/08 12:34:45;;;;;;;4.20;3.63;;;;;;;;;;5110634;28;20046;-96
2024/01/08 12:40:10;;;;;;;6.78;3.35;;;;;;;;;;5133903;22;20056;-96
2024/01/08 12:46:12;;;;;;;3.33;2.80;;;;;;;;;;5087027;22;20037;-96
2024/01/08 15:43:31;;;;;;;7.97;3.55;;;-0.10;99.30;;;;;;4849631;29;20049;-95
2024/01/08 15:46:26;;;;;;;6.30;3.63;;;;;;;;;;5173129;23;20059;-96
2024/01/08 15:49:30;;;;;;;9.75;3.50;;;;;;;;;;4985793;23;20049;-96
2024/01/08 16:32:20;;;;;;;8.30;3.88;;;;;;;;;;5288827;23;20057;-96
2024/01/08 16:35:04;;;;;;;4.07;3.67;;;;;;;;;;4817094;29;20064;-95
2024/01/08 16:37:35;;;;;;;5.22;3.60;;;;;;;;;;4841706;29;20045;-96
2024/01/08 16:40:04;;;;;;;;;;;;;;;;;;4854076;24;20058;-96
2024/01/08 16:42:37;;;;;;;5.65;4.25;;;;;;;;;;4831503;29;19967;-96
2024/01/08 16:45:03;;;;;;;6.97;3.72;;;;;;;;;;4845599;29;20053;-95
2024/01/08 16:47:29;;;;;;;6.82;4.50;;;;;;;;;;4830279;29;20050;-96
2024/01/08 16:49:56;;;;;;;4.97;3.78;;;;;;;;;;4839934;29;20052;-95
2024/01/08 16:52:22;;;;;;;4.53;3.67;;;;;;;;;;4845515;29;20531;-94
2024/01/08 16:54:48;;;;;;;6.50;3.90;;;;;;;;;;4845587;29;20054;-94
2024/01/08 16:57:15;;;;;;;4.85;3.25;;;;;;;;;;4848215;29;20057;-93
2024/01/08 16:59:41;;;;;;;8.85;3.97;;;;;;;;;;4848143;29;20049;-93
2024/01/08 17:02:08;;;;;;;6.25;3.80;;;;;;;;;;4853860;29;20077;-94
2024/01/08 17:04:35;;;;;;;3.60;3.30;;;;;;;;;;4876265;29;20041;-94
2024/01/08 17:07:01;;;;;;;7.35;3.88;;;;;;;;;;4841843;29;20495;-93
2024/01/08 17:09:27;;;;;;;6.47;3.63;;;;;;;;;;4843649;29;20613;-93
2024/01/08 17:11:53;;;;;;;11.13;3.35;;;;;;;;;;4843654;29;20136;-92
2024/01/08 17:14:19;;;;;;;6.05;3.33;;;;;;;;;;4838455;29;20140;-92
2024/01/08 17:16:45;;;;;;;7.57;3.88;;;;;;;;;;4855786;29;20133;-91
2024/01/08 17:19:11;;;;;;;5.85;3.95;;;;;;;;;;4845786;29;20049;-90
2024/01/08 17:21:37;;;;;;;4.18;3.65;;;;;;;;;;4844214;29;20494;-92
2024/01/08 17:24:04;;;;;;;3.97;3.60;;;;;;;;;;4853599;29;20085;-91
2024/01/08 17:26:30;;;;;;;4.18;2.95;;;;;;;;;;4846363;29;20061;-91
2024/01/08 17:28:56;;;;;;;7.95;4.10;;;;;;;;;;4852328;29;20050;-91
2024/01/08 17:31:22;;;;;;;5.55;3.67;;;;;;;;;;4857342;29;20132;-89
2024/01/08 17:33:48;;;;;;;6.72;3.70;;;;;;;;;;4841467;29;20128;-90
2024/01/08 17:36:22;;;;;;;4.13;3.65;;;;;;;;;;4841943;29;20045;-90
2024/01/08 17:38:48;;;;;;;12.25;6.85;;;;;;;;;;4846752;29;20163;-90
2024/01/08 17:41:14;;;;;;;4.63;3.97;;;;;;;;;;4817523;29;20109;-90
2024/01/08 17:43:41;;;;;;;10.15;3.95;;;;;;;;;;4827788;29;20049;-89
2024/01/08 17:46:10;;;;;;;4.45;3.85;;;;;;;;;;4828691;29;20106;-90
2024/01/08 17:48:36;;;;;;;5.20;3.92;;;;;;;;;;4834948;29;20061;-90
2024/01/08 17:51:02;;;;;;;5.43;4.03;;;;;;;;;;4831279;29;20120;-90
2024/01/08 17:53:28;;;;;;;5.65;3.78;;;;;;;;;;4811938;29;20052;-89
2024/01/08 17:55:54;;;;;;;6.47;3.97;;;;;;;;;;4810609;29;20053;-90
2024/01/08 17:58:20;;;;;;;9.23;4.22;;;;;;;;;;4812631;29;20088;-89
2024/01/08 18:00:46;;;;;;;6.15;3.90;;;;;;;;;;4829798;29;20049;-90
2024/01/08 18:03:14;;;;;;;5.70;3.80;;;;;;;;;;4830954;29;20049;-89
2024/01/08 18:05:40;;;;;;;7.72;3.78;;;;;;;;;;4834475;29;20061;-90
2024/01/08 18:08:07;;;;;;;5.25;3.95;;;;;;;;;;4834064;29;20070;-91
2024/01/08 18:10:33;;;;;;;3.88;3.47;;;;;;;;;;4815965;29;20570;-91
2024/01/08 18:12:59;;;;;;;5.18;3.47;;;;;;;;;;4840039;29;20046;-91
2024/01/08 18:15:27;;;;;;;7.40;3.75;;;;;;;;;;4816034;29;20060;-92
2024/01/08 18:17:55;;;;;;;9.38;5.22;;;;;;;;;;4828530;29;20418;-90
2024/01/08 18:20:21;;;;;;;7.13;4.47;;;;;;;;;;4830616;29;20041;-91
2024/01/08 18:22:47;;;;;;;7.70;4.60;;;;;;;;;;4828455;29;20064;-91
2024/01/08 18:25:15;;;;;;;7.30;4.18;;;;;;;;;;4827942;29;20053;-91
2024/01/08 18:27:41;;;;;;;4.82;4.18;;;;;;;;;;4828835;29;20499;-91
2024/01/08 18:30:08;;;;;;;9.18;5.15;;;;;;;;;;4826027;29;20129;-90
2024/01/08 18:32:34;;;;;;;7.15;4.50;;;;;;;;;;4846975;29;20041;-91
2024/01/08 18:35:00;;;;;;;6.63;4.47;;;;;;;;;;4830239;29;20080;-92
2024/01/08 18:37:26;;;;;;;5.47;4.05;;;;;;;;;;4829217;29;20088;-92
2024/01/08 18:39:52;;;;;;;8.40;4.68;;;;;;;;;;4817989;29;20082;-91
2024/01/08 18:42:19;;;;;;;5.45;4.13;;;;;;;;;;4846310;29;20050;-91
2024/01/08 18:44:45;;;;;;;10.98;6.30;;;;;;;;;;4831223;29;20049;-92
2024/01/08 18:47:11;;;;;;;5.45;3.75;;;;;;;;;;4813605;29;20073;-91
2024/01/08 18:49:37;;;;;;;5.95;4.28;;;;;;;;;;4831401;29;20064;-93
2024/01/08 18:52:03;;;;;;;7.70;4.25;;;;;;;;;;4826673;29;20054;-92
2024/01/08 18:54:32;;;;;;;6.28;4.10;;;;;;;;;;4832769;29;20083;-92
2024/01/08 18:56:58;;;;;;;5.90;3.83;;;;;;;;;;4828680;29;20076;-93
2024/01/08 18:59:24;;;;;;;6.55;4.10;;;;;;;;;;4829319;29;20052;-91
2024/01/08 19:01:50;;;;;;;4.15;3.60;;;;;;;;;;4827132;29;20060;-93
2024/01/08 19:04:18;;;;;;;6.75;4.22;;;;;;;;;;4816101;29;20054;-93
2024/01/08 19:06:47;;;;;;;7.40;4.55;;;;;;;;;;4833219;29;20096;-93
2024/01/08 19:12:07;;;;;;;9.75;4.75;;;;;;;;;;4837056;29;20050;-93
2024/01/08 19:14:33;;;;;;;7.60;3.95;;;;;;;;;;4832301;29;20060;-91
2024/01/08 19:16:59;;;;;;;7.40;3.97;;;;;;;;;;4834529;29;20052;-93
2024/01/08 19:19:26;;;;;;;7.32;4.28;;;;;;;;;;4834636;29;20046;-92